Terminal Aerodrome Forecast
Issued by NWS

Current Version | Previous Version | Graphics & Text | Print | Product List | Glossary On
Versions: 1 2 3 4 5 6 7 8 9 10 11 12 13 14 15 16 17 18 19 20 21
807
FTUS41 KILN 222341 AAA
TAFLCK
TAF AMD
KLCK 222341Z 2300/2324 05008KT P6SM BKN100
     FM230500 03010KT P6SM VCSH BKN080
     FM231100 02011KT 5SM -RA BR SCT015 OVC050
     FM231500 02010KT 3SM -RA BR BKN018 OVC040
     FM232000 01008KT 5SM BR VCSH OVC015
      AMD NOT SKED=

USA.gov is the U.S. government's official web portal to all federal, state and local government web resources and services.